createdAt,value
2023-04-18T00:00:24.770Z,7.97
2023-04-18T00:03:16.630Z,7.98
2023-04-18T00:06:03.616Z,7.98
2023-04-18T00:08:50.199Z,7.96
2023-04-18T00:11:36.375Z,7.89
2023-04-18T00:14:23.167Z,7.90
2023-04-18T00:17:10.442Z,7.91
2023-04-18T00:19:58.391Z,7.88
2023-04-18T00:22:46.486Z,7.86
2023-04-18T00:25:33.630Z,7.83
2023-04-18T00:28:20.047Z,7.81
2023-04-18T00:31:08.315Z,7.73
2023-04-18T00:33:55.044Z,7.80
2023-04-18T00:36:43.242Z,7.80
2023-04-18T00:39:29.999Z,7.81
2023-04-18T00:42:16.751Z,7.81
2023-04-18T00:45:03.375Z,7.80
2023-04-18T00:47:49.874Z,7.80
2023-04-18T00:50:37.817Z,7.82
2023-04-18T00:53:24.547Z,7.84
2023-04-18T00:56:11.776Z,7.85
2023-04-18T00:58:59.320Z,7.84
2023-04-18T01:01:46.403Z,7.83
2023-04-18T01:04:33.096Z,7.83
2023-04-18T01:07:19.925Z,7.83
2023-04-18T01:10:08.120Z,7.83
2023-04-18T01:13:11.776Z,7.78
2023-04-18T01:15:59.170Z,7.80
2023-04-18T01:18:46.387Z,7.80
2023-04-18T01:21:36.189Z,7.78
2023-04-18T01:24:25.861Z,7.74
2023-04-18T01:27:16.086Z,7.80
2023-04-18T01:30:02.671Z,7.82
2023-04-18T01:32:49.759Z,7.84
2023-04-18T01:35:37.300Z,7.86
2023-04-18T01:38:23.686Z,7.87
2023-04-18T01:41:10.612Z,7.86
2023-04-18T01:43:57.080Z,7.88
2023-04-18T01:46:43.498Z,7.91
2023-04-18T01:49:29.794Z,7.94
2023-04-18T01:52:17.433Z,7.95
2023-04-18T01:55:06.040Z,7.92
2023-04-18T01:57:53.035Z,7.92
2023-04-18T02:00:39.717Z,7.90
2023-04-18T02:03:26.242Z,7.90
2023-04-18T02:06:12.814Z,7.89
2023-04-18T02:08:59.624Z,7.88
2023-04-18T02:11:45.918Z,7.88
2023-04-18T02:14:35.322Z,7.88
2023-04-18T02:17:23.753Z,7.87
2023-04-18T02:20:11.050Z,7.85
2023-04-18T02:23:01.086Z,7.86
2023-04-18T02:25:49.400Z,7.83
2023-04-18T02:28:39.280Z,7.82
2023-04-18T02:31:25.553Z,7.79
2023-04-18T02:34:12.407Z,7.72
2023-04-18T02:36:59.902Z,7.76
2023-04-18T02:39:46.466Z,7.73
2023-04-18T02:42:33.182Z,7.70
2023-04-18T02:45:20.828Z,7.66
2023-04-18T02:48:07.929Z,7.62
2023-04-18T02:51:03.410Z,7.56
2023-04-18T02:53:54.972Z,7.53
2023-04-18T02:56:42.916Z,7.50
2023-04-18T02:59:42.964Z,7.43
2023-04-18T03:02:48.202Z,7.42
2023-04-18T03:05:55.225Z,7.35
2023-04-18T03:08:42.243Z,7.30
2023-04-18T03:11:28.864Z,7.29
2023-04-18T03:14:16.185Z,7.28
2023-04-18T03:17:08.410Z,7.25
2023-04-18T03:19:58.655Z,7.24
2023-04-18T03:22:45.565Z,7.17
2023-04-18T03:25:32.712Z,7.20
2023-04-18T03:28:19.271Z,7.19
2023-04-18T03:31:06.003Z,7.15
2023-04-18T03:33:53.744Z,7.22
2023-04-18T03:36:40.840Z,7.25
2023-04-18T03:39:28.558Z,7.28
2023-04-18T03:42:16.075Z,7.31
2023-04-18T03:45:02.850Z,7.33
2023-04-18T03:47:50.991Z,7.36
2023-04-18T03:50:37.660Z,7.37
2023-04-18T03:53:24.730Z,7.46
2023-04-18T03:56:11.763Z,7.49
2023-04-18T03:59:10.925Z,7.53
2023-04-18T04:01:58.283Z,7.57
2023-04-18T04:04:45.383Z,7.62
2023-04-18T04:07:33.038Z,7.61
2023-04-18T04:10:19.969Z,7.69
2023-04-18T04:13:07.176Z,7.72
2023-04-18T04:15:56.951Z,7.72
2023-04-18T04:18:43.902Z,7.79
2023-04-18T04:21:31.894Z,7.83
2023-04-18T04:24:18.821Z,7.89
2023-04-18T04:27:06.446Z,7.92
2023-04-18T04:29:56.721Z,7.93
2023-04-18T04:32:44.818Z,8.00
2023-04-18T04:35:32.190Z,8.04
2023-04-18T04:38:23.144Z,8.08
2023-04-18T04:41:11.853Z,8.12
2023-04-18T04:43:59.656Z,8.16
2023-04-18T04:46:50.180Z,8.22
2023-04-18T04:49:39.813Z,8.27
2023-04-18T04:52:26.533Z,8.32
2023-04-18T04:55:13.513Z,8.38
2023-04-18T04:58:00.781Z,8.42
2023-04-18T05:00:58.851Z,8.46
2023-04-18T05:03:45.625Z,8.49
2023-04-18T05:06:32.381Z,8.52
2023-04-18T05:09:18.994Z,8.59
2023-04-18T05:12:06.085Z,8.67
2023-04-18T05:14:52.922Z,8.77
2023-04-18T05:17:39.407Z,8.82
2023-04-18T05:20:26.061Z,8.78
2023-04-18T05:23:13.140Z,8.87
2023-04-18T05:25:59.771Z,8.92
2023-04-18T05:28:46.283Z,8.99
2023-04-18T05:31:33.138Z,9.04
2023-04-18T05:34:19.857Z,9.08
2023-04-18T05:37:06.617Z,9.14
2023-04-18T05:39:52.997Z,9.19
2023-04-18T05:42:39.419Z,9.24
2023-04-18T05:45:26.296Z,9.32
2023-04-18T05:48:13.546Z,9.36
2023-04-18T05:51:00.496Z,9.42
2023-04-18T05:53:47.120Z,9.44
2023-04-18T05:56:33.889Z,9.45
2023-04-18T05:59:23.159Z,9.48
2023-04-18T06:02:13.566Z,9.49
2023-04-18T06:05:01.526Z,9.52
2023-04-18T06:07:48.695Z,9.58
2023-04-18T06:10:36.989Z,9.62
2023-04-18T06:13:25.485Z,9.68
2023-04-18T06:16:12.502Z,9.75
2023-04-18T06:19:01.191Z,9.82
2023-04-18T06:21:49.049Z,9.91
2023-04-18T06:24:35.727Z,10.03
2023-04-18T06:27:31.070Z,10.15
2023-04-18T06:30:22.017Z,10.27
2023-04-18T06:33:11.065Z,10.37
2023-04-18T06:35:58.875Z,10.46
2023-04-18T06:38:45.709Z,10.48
2023-04-18T06:41:32.175Z,10.53
2023-04-18T06:44:18.559Z,10.61
2023-04-18T06:47:06.006Z,10.69
2023-04-18T06:49:52.590Z,10.77
2023-04-18T06:52:44.251Z,10.84
2023-04-18T06:55:30.990Z,10.88
2023-04-18T06:58:17.862Z,10.93
2023-04-18T07:01:04.451Z,11.04
2023-04-18T07:03:51.264Z,11.11
2023-04-18T07:06:37.754Z,11.16
2023-04-18T07:09:24.061Z,11.22
2023-04-18T07:12:10.677Z,11.25
2023-04-18T07:14:57.406Z,11.31
2023-04-18T07:17:44.010Z,11.36
2023-04-18T07:20:30.819Z,11.41
2023-04-18T07:23:17.350Z,11.46
2023-04-18T07:26:05.783Z,11.52
2023-04-18T07:28:52.084Z,11.61
2023-04-18T07:31:38.746Z,11.67
2023-04-18T07:34:29.784Z,11.77
2023-04-18T07:37:18.375Z,11.87
2023-04-18T07:40:05.706Z,11.93
2023-04-18T07:42:53.146Z,12.06
2023-04-18T07:45:39.659Z,12.10
2023-04-18T07:48:26.145Z,12.15
2023-04-18T07:51:12.982Z,12.22
2023-04-18T07:53:59.609Z,12.27
2023-04-18T07:56:45.817Z,12.33
2023-04-18T07:59:32.371Z,12.45
2023-04-18T08:02:20.391Z,12.53
2023-04-18T08:05:07.970Z,12.62
2023-04-18T08:07:54.528Z,12.70
2023-04-18T08:10:41.018Z,12.80
2023-04-18T08:13:27.962Z,12.99
2023-04-18T08:16:16.360Z,13.08
2023-04-18T08:19:03.856Z,13.27
2023-04-18T08:21:52.001Z,13.42
2023-04-18T08:24:39.055Z,13.45
2023-04-18T08:27:25.840Z,13.53
2023-04-18T08:30:13.558Z,13.63
2023-04-18T08:33:00.709Z,13.78
2023-04-18T08:35:47.556Z,13.84
2023-04-18T08:38:34.285Z,13.93
2023-04-18T08:41:23.562Z,14.02
2023-04-18T08:44:10.043Z,14.11
2023-04-18T08:46:57.791Z,14.24
2023-04-18T08:49:46.673Z,14.40
2023-04-18T08:52:36.161Z,14.54
2023-04-18T08:55:24.665Z,14.70
2023-04-18T08:58:12.753Z,14.91
2023-04-18T09:00:59.719Z,15.10
2023-04-18T09:03:46.433Z,15.21
2023-04-18T09:06:33.605Z,15.29
2023-04-18T09:09:27.325Z,15.49
2023-04-18T09:12:18.296Z,15.66
2023-04-18T09:15:15.704Z,15.81
2023-04-18T09:18:03.212Z,15.98
2023-04-18T09:20:50.078Z,16.10
2023-04-18T09:23:38.655Z,16.21
2023-04-18T09:26:37.724Z,16.23
2023-04-18T09:29:47.090Z,16.32
2023-04-18T09:32:33.789Z,16.45
2023-04-18T09:35:25.956Z,16.56
2023-04-18T09:38:12.299Z,16.63
2023-04-18T09:41:09.256Z,16.70
2023-04-18T09:44:14.609Z,16.79
2023-04-18T09:47:02.547Z,16.72
2023-04-18T09:49:49.004Z,16.85
2023-04-18T09:52:38.539Z,16.85
2023-04-18T09:55:25.451Z,16.90
2023-04-18T09:58:13.306Z,16.97
2023-04-18T10:01:00.763Z,17.01
2023-04-18T10:03:51.327Z,17.14
2023-04-18T10:06:39.910Z,17.19
2023-04-18T10:09:31.522Z,17.22
2023-04-18T10:12:18.853Z,17.28
2023-04-18T10:15:06.761Z,17.37
2023-04-18T10:18:03.765Z,17.41
2023-04-18T10:21:01.938Z,17.33
2023-04-18T10:23:48.907Z,17.37
2023-04-18T10:26:47.239Z,17.52
2023-04-18T10:29:50.685Z,17.51
2023-04-18T10:32:36.990Z,17.47
2023-04-18T10:35:23.305Z,17.45
2023-04-18T10:38:17.296Z,17.54
2023-04-18T10:41:26.100Z,17.43
2023-04-18T10:44:14.902Z,17.35
2023-04-18T10:47:02.633Z,17.37
2023-04-18T10:49:57.040Z,17.25
2023-04-18T10:52:43.781Z,17.05
2023-04-18T10:55:31.258Z,17.02
2023-04-18T10:58:17.848Z,17.05
2023-04-18T11:01:06.130Z,17.05
2023-04-18T11:03:53.485Z,17.00
2023-04-18T11:06:50.243Z,16.91
2023-04-18T11:09:38.565Z,16.90
2023-04-18T11:12:24.862Z,16.95
2023-04-18T11:15:17.620Z,17.08
2023-04-18T11:18:05.094Z,17.20
2023-04-18T11:20:52.527Z,17.20
2023-04-18T11:23:41.187Z,17.19
2023-04-18T11:26:29.211Z,17.32
2023-04-18T11:29:17.932Z,17.37
2023-04-18T11:32:08.959Z,17.25
2023-04-18T11:34:55.739Z,17.09
2023-04-18T11:37:45.757Z,17.19
2023-04-18T11:40:32.129Z,17.57
2023-04-18T11:43:25.456Z,17.94
2023-04-18T11:46:13.319Z,18.05
2023-04-18T11:48:59.653Z,17.89
2023-04-18T11:51:47.554Z,17.96
2023-04-18T11:54:44.956Z,18.25
2023-04-18T11:57:33.043Z,18.37
2023-04-18T12:00:30.947Z,18.10
2023-04-18T12:03:20.848Z,17.99
2023-04-18T12:06:07.546Z,18.13
2023-04-18T12:09:02.867Z,18.24
2023-04-18T12:12:07.349Z,18.12
2023-04-18T12:15:03.277Z,18.05
2023-04-18T12:17:52.541Z,18.15
2023-04-18T12:20:46.725Z,18.21
2023-04-18T12:23:38.866Z,18.13
2023-04-18T12:26:26.843Z,17.99
2023-04-18T12:29:13.834Z,17.93
2023-04-18T12:32:00.689Z,18.10
2023-04-18T12:34:47.332Z,18.16
2023-04-18T12:37:33.928Z,18.29
2023-04-18T12:40:22.939Z,18.49
2023-04-18T12:43:09.791Z,18.66
2023-04-18T12:45:56.700Z,18.90
2023-04-18T12:48:42.847Z,19.16
2023-04-18T12:51:29.046Z,19.36
2023-04-18T12:54:15.735Z,19.24
2023-04-18T12:57:03.294Z,19.02
2023-04-18T12:59:49.899Z,18.87
2023-04-18T13:02:50.725Z,18.94
2023-04-18T13:05:37.208Z,19.10
2023-04-18T13:08:23.867Z,19.15
2023-04-18T13:11:10.254Z,19.41
2023-04-18T13:13:56.977Z,19.55
2023-04-18T13:16:44.226Z,19.15
2023-04-18T13:19:30.781Z,19.54
2023-04-18T13:22:20.052Z,21.80
2023-04-18T13:25:08.456Z,23.92
2023-04-18T13:27:55.268Z,23.43
2023-04-18T13:30:41.767Z,22.74
2023-04-18T13:33:28.094Z,22.37
2023-04-18T13:36:14.563Z,21.65
2023-04-18T13:39:02.151Z,20.91
2023-04-18T13:41:48.619Z,20.78
2023-04-18T13:44:36.670Z,22.80
2023-04-18T13:47:23.531Z,24.95
2023-04-18T13:50:11.087Z,26.75
2023-04-18T13:52:57.740Z,28.50
2023-04-18T13:55:44.406Z,29.23
2023-04-18T13:58:30.997Z,27.34
2023-04-18T14:01:17.724Z,25.39
2023-04-18T14:04:04.276Z,23.88
2023-04-18T14:06:51.447Z,24.13
2023-04-18T14:09:38.087Z,26.36
2023-04-18T14:12:50.059Z,27.74
2023-04-18T14:19:04.294Z,23.52
2023-04-18T14:21:50.922Z,22.18
2023-04-18T14:24:37.351Z,21.22
2023-04-18T14:27:25.542Z,20.51
2023-04-18T14:30:12.648Z,19.96
2023-04-18T14:32:58.877Z,19.60
2023-04-18T14:35:46.037Z,19.22
2023-04-18T14:38:33.289Z,18.70
2023-04-18T14:41:19.568Z,18.39
2023-04-18T14:44:06.753Z,18.16
2023-04-18T14:46:53.294Z,18.04
2023-04-18T14:49:40.296Z,17.89
2023-04-18T14:52:26.714Z,17.67
2023-04-18T14:55:13.691Z,17.42
2023-04-18T14:58:01.327Z,17.19
2023-04-18T15:00:49.109Z,16.94
2023-04-18T15:03:35.852Z,16.73
2023-04-18T15:06:23.240Z,16.59
2023-04-18T15:09:09.883Z,16.51
2023-04-18T15:11:58.248Z,16.36
2023-04-18T15:14:45.224Z,16.26
2023-04-18T15:17:31.869Z,16.17
2023-04-18T15:20:18.790Z,16.07
2023-04-18T15:23:05.304Z,15.96
2023-04-18T15:25:51.621Z,15.86
2023-04-18T15:28:37.950Z,15.73
2023-04-18T15:31:24.616Z,15.54
2023-04-18T15:34:11.873Z,15.40
2023-04-18T15:36:58.716Z,15.23
2023-04-18T15:39:45.295Z,15.07
2023-04-18T15:42:31.649Z,15.03
2023-04-18T15:45:18.538Z,14.92
2023-04-18T15:48:05.604Z,14.87
2023-04-18T15:50:52.606Z,14.86
2023-04-18T15:53:39.252Z,14.81
2023-04-18T15:56:26.870Z,14.77
2023-04-18T15:59:13.678Z,14.69
2023-04-18T16:02:00.660Z,14.68
2023-04-18T16:04:47.140Z,14.68
2023-04-18T16:07:33.915Z,14.67
2023-04-18T16:10:20.606Z,14.60
2023-04-18T16:13:06.873Z,14.50
2023-04-18T16:15:53.101Z,14.44
2023-04-18T16:18:40.588Z,14.40
2023-04-18T16:21:28.238Z,14.31
2023-04-18T16:24:18.408Z,14.26
2023-04-18T16:27:05.264Z,14.20
2023-04-18T16:29:51.483Z,14.10
2023-04-18T16:32:38.861Z,14.08
2023-04-18T16:35:25.590Z,14.16
2023-04-18T16:38:12.075Z,14.19
2023-04-18T16:40:59.676Z,14.17
2023-04-18T16:43:46.539Z,14.15
2023-04-18T16:46:33.320Z,14.12
2023-04-18T16:49:20.567Z,14.14
2023-04-18T16:52:07.371Z,14.12
2023-04-18T16:54:53.821Z,14.12
2023-04-18T16:57:40.402Z,14.12
2023-04-18T17:00:27.338Z,14.05
2023-04-18T17:03:14.372Z,13.94
2023-04-18T17:06:01.629Z,13.77
2023-04-18T17:08:49.250Z,13.64
2023-04-18T17:11:39.634Z,13.46
2023-04-18T17:14:26.730Z,13.26
2023-04-18T17:17:13.290Z,13.02
2023-04-18T17:20:00.027Z,12.91
2023-04-18T17:22:46.687Z,12.78
2023-04-18T17:25:33.136Z,12.67
2023-04-18T17:28:21.714Z,12.52
2023-04-18T17:31:08.306Z,12.37
2023-04-18T17:33:54.927Z,12.25
2023-04-18T17:36:41.874Z,12.15
2023-04-18T17:39:28.555Z,12.06
2023-04-18T17:42:15.398Z,12.03
2023-04-18T17:45:03.759Z,11.93
2023-04-18T17:47:50.942Z,11.81
2023-04-18T17:50:38.097Z,11.79
2023-04-18T17:53:24.539Z,11.73
2023-04-18T17:56:11.610Z,11.65
2023-04-18T17:58:57.880Z,11.55
2023-04-18T18:01:44.251Z,11.52
2023-04-18T18:04:31.041Z,11.45
2023-04-18T18:07:18.448Z,11.42
2023-04-18T18:10:05.496Z,11.40
2023-04-18T18:12:51.859Z,11.34
2023-04-18T18:15:39.046Z,11.29
2023-04-18T18:18:26.366Z,11.26
2023-04-18T18:21:12.954Z,11.23
2023-04-18T18:23:59.307Z,11.19
2023-04-18T18:26:45.869Z,11.16
2023-04-18T18:29:32.254Z,11.09
2023-04-18T18:32:18.869Z,11.09
2023-04-18T18:35:06.245Z,11.07
2023-04-18T18:37:52.813Z,11.08
2023-04-18T18:40:39.543Z,11.04
2023-04-18T18:43:26.558Z,11.00
2023-04-18T18:46:15.029Z,10.95
2023-04-18T18:49:01.664Z,10.86
2023-04-18T18:51:48.451Z,10.83
2023-04-18T18:54:35.028Z,10.76
2023-04-18T18:57:21.626Z,10.67
2023-04-18T19:00:11.869Z,10.65
2023-04-18T19:02:58.266Z,10.62
2023-04-18T19:05:46.421Z,10.61
2023-04-18T19:08:33.835Z,10.57
2023-04-18T19:11:21.175Z,10.52
2023-04-18T19:14:07.829Z,10.46
2023-04-18T19:16:56.042Z,10.39
2023-04-18T19:19:42.809Z,10.34
2023-04-18T19:22:30.008Z,10.28
2023-04-18T19:25:16.709Z,10.20
2023-04-18T19:28:05.834Z,10.13
2023-04-18T19:30:53.164Z,10.08
2023-04-18T19:33:39.386Z,10.02
2023-04-18T19:36:26.734Z,9.98
2023-04-18T19:39:13.779Z,9.94
2023-04-18T19:42:00.648Z,9.89
2023-04-18T19:44:46.970Z,9.87
2023-04-18T19:47:34.036Z,9.84
2023-04-18T19:50:20.460Z,9.81
2023-04-18T19:53:06.897Z,9.75
2023-04-18T19:55:55.043Z,9.68
2023-04-18T19:58:46.224Z,9.61
2023-04-18T20:01:32.919Z,9.54
2023-04-18T20:04:19.576Z,9.47
2023-04-18T20:07:06.428Z,9.40
2023-04-18T20:09:53.126Z,9.32
2023-04-18T20:12:39.798Z,9.26
2023-04-18T20:15:26.156Z,9.20
2023-04-18T20:18:12.678Z,9.16
2023-04-18T20:20:58.761Z,9.10
2023-04-18T20:23:45.314Z,9.05
2023-04-18T20:26:31.810Z,9.00
2023-04-18T20:29:18.334Z,8.94
2023-04-18T20:32:05.809Z,8.85
2023-04-18T20:34:52.287Z,8.85
2023-04-18T20:37:39.276Z,8.81
2023-04-18T20:40:26.152Z,8.77
2023-04-18T20:43:13.560Z,8.75
2023-04-18T20:46:01.003Z,8.70
2023-04-18T20:48:47.545Z,8.66
2023-04-18T20:51:38.134Z,8.63
2023-04-18T20:54:24.690Z,8.58
2023-04-18T20:57:11.114Z,8.53
2023-04-18T20:59:58.672Z,8.49
2023-04-18T21:02:45.259Z,8.45
2023-04-18T21:05:32.477Z,8.40
2023-04-18T21:08:19.522Z,8.37
2023-04-18T21:11:07.128Z,8.34
2023-04-18T21:13:53.497Z,8.33
2023-04-18T21:16:40.083Z,8.31
2023-04-18T21:19:27.144Z,8.25
2023-04-18T21:22:15.270Z,8.20
2023-04-18T21:25:01.771Z,8.14
2023-04-18T21:27:50.782Z,8.09
2023-04-18T21:30:37.320Z,8.03
2023-04-18T21:33:24.566Z,7.94
2023-04-18T21:36:11.180Z,7.85
2023-04-18T21:38:59.634Z,7.77
2023-04-18T21:41:45.917Z,7.65
2023-04-18T21:44:32.829Z,7.62
2023-04-18T21:47:19.713Z,7.56
2023-04-18T21:50:07.265Z,7.49
2023-04-18T21:52:53.380Z,7.44
2023-04-18T21:55:40.168Z,7.38
2023-04-18T21:58:27.486Z,7.36
2023-04-18T22:01:13.757Z,7.34
2023-04-18T22:04:02.128Z,7.34
2023-04-18T22:06:48.823Z,7.34
2023-04-18T22:09:36.385Z,7.33
2023-04-18T22:12:22.665Z,7.30
2023-04-18T22:15:10.426Z,7.24
2023-04-18T22:17:57.866Z,7.15
2023-04-18T22:20:45.253Z,7.07
2023-04-18T22:23:32.101Z,7.01
2023-04-18T22:26:18.266Z,6.99
2023-04-18T22:29:05.298Z,6.93
2023-04-18T22:31:51.767Z,6.86
2023-04-18T22:34:37.969Z,6.74
2023-04-18T22:37:24.627Z,6.72
2023-04-18T22:40:12.515Z,6.64
2023-04-18T22:42:59.206Z,6.58
2023-04-18T22:45:45.631Z,6.53
2023-04-18T22:48:31.927Z,6.43
2023-04-18T22:51:18.818Z,6.36
2023-04-18T22:54:05.283Z,6.31
2023-04-18T22:56:51.718Z,6.27
2023-04-18T22:59:38.066Z,6.23
2023-04-18T23:02:24.786Z,6.18
2023-04-18T23:05:11.949Z,6.10
2023-04-18T23:08:00.219Z,6.03
2023-04-18T23:10:46.801Z,5.97
2023-04-18T23:13:33.246Z,5.92
2023-04-18T23:16:19.829Z,5.88
2023-04-18T23:19:06.251Z,5.83
2023-04-18T23:21:52.605Z,5.77
2023-04-18T23:24:39.007Z,5.72
2023-04-18T23:27:25.401Z,5.65
2023-04-18T23:30:12.950Z,5.60
2023-04-18T23:32:59.533Z,5.52
2023-04-18T23:35:46.154Z,5.52
2023-04-18T23:38:33.469Z,5.47
2023-04-18T23:41:20.537Z,5.41
2023-04-18T23:44:07.233Z,5.38
2023-04-18T23:46:53.905Z,5.32
2023-04-18T23:49:40.556Z,5.26
2023-04-18T23:52:27.398Z,5.14
2023-04-18T23:55:14.687Z,5.01
2023-04-18T23:58:01.406Z,4.88
